Time;durP1;ratioP1;P1;durP2;ratioP2;P2;SDS_P1;SDS_P2;PMS_P1;PMS_P2;Temp;Humidity;BMP_temperature;BMP_pressure;BME280_temperature;BME280_humidity;BME280_pressure;Samples;Min_cycle;Max_cycle;Signal;HPM_P1;HPM_P2
2022/04/13 00:00:40;;;;;;;3.08;1.63;;;19.40;67.60;;;;;;5033027;28;20048;-76
2022/04/13 00:03:05;;;;;;;2.17;1.55;;;19.40;67.60;;;;;;5029525;28;20908;-76
2022/04/13 00:05:32;;;;;;;2.45;1.63;;;19.40;67.60;;;;;;5028613;28;20501;-75
2022/04/13 00:08:00;;;;;;;1.85;1.30;;;19.30;67.60;;;;;;5021217;28;20103;-75
2022/04/13 00:10:26;;;;;;;2.08;1.70;;;19.30;67.60;;;;;;5015039;28;20084;-75
2022/04/13 00:12:52;;;;;;;1.70;1.33;;;19.30;67.70;;;;;;5035017;28;20030;-76
2022/04/13 00:15:18;;;;;;;1.90;1.42;;;19.30;67.80;;;;;;5011743;28;20037;-76
2022/04/13 00:17:43;;;;;;;2.22;1.60;;;19.20;67.80;;;;;;5027405;28;20034;-75
2022/04/13 00:20:10;;;;;;;2.10;1.50;;;19.20;67.80;;;;;;5019979;28;20061;-76
2022/04/13 00:22:36;;;;;;;2.00;1.50;;;19.20;67.80;;;;;;5015584;28;20091;-75
2022/04/13 00:25:02;;;;;;;2.05;1.50;;;19.20;67.70;;;;;;5042937;28;20022;-75
2022/04/13 00:27:28;;;;;;;3.05;1.60;;;19.20;67.80;;;;;;5011742;28;20025;-76
2022/04/13 00:29:54;;;;;;;1.60;1.40;;;19.10;67.80;;;;;;5022149;28;20029;-75
2022/04/13 00:32:20;;;;;;;2.40;1.60;;;19.10;67.80;;;;;;5013434;28;20096;-75
2022/04/13 00:34:45;;;;;;;3.33;1.75;;;19.10;67.80;;;;;;5015523;28;20120;-75
2022/04/13 00:37:11;;;;;;;2.88;1.70;;;19.00;67.80;;;;;;4998947;28;20897;-75
2022/04/13 00:39:37;;;;;;;2.25;1.50;;;19.00;67.80;;;;;;5009750;28;20041;-75
2022/04/13 00:42:05;;;;;;;2.22;1.50;;;19.00;67.80;;;;;;5022892;28;20101;-76
2022/04/13 00:44:31;;;;;;;3.33;1.52;;;19.00;67.80;;;;;;5015256;28;20083;-75
2022/04/13 00:47:01;;;;;;;2.20;1.50;;;18.90;67.70;;;;;;5013233;28;20034;-75
2022/04/13 00:49:27;;;;;;;1.60;1.27;;;18.90;67.80;;;;;;5035828;28;20034;-76
2022/04/13 00:51:53;;;;;;;2.40;1.55;;;18.90;67.80;;;;;;5004383;28;20034;-76
2022/04/13 00:54:20;;;;;;;2.47;1.60;;;18.90;67.80;;;;;;5037726;28;20486;-75
2022/04/13 00:56:49;;;;;;;3.47;1.60;;;18.80;67.70;;;;;;4980762;28;20030;-75
2022/04/13 00:59:15;;;;;;;2.75;1.60;;;18.80;67.80;;;;;;5029970;28;20061;-75
2022/04/13 01:01:47;;;;;;;2.80;1.58;;;18.80;67.80;;;;;;5012075;28;20482;-75
2022/04/13 01:04:13;;;;;;;2.28;1.40;;;18.80;67.90;;;;;;5013565;28;20120;-75
2022/04/13 01:06:41;;;;;;;2.00;1.48;;;18.80;67.80;;;;;;5010436;28;20108;-76
2022/04/13 01:09:07;;;;;;;2.13;1.52;;;18.70;67.80;;;;;;5050558;28;20079;-75
2022/04/13 01:11:33;;;;;;;2.95;1.70;;;18.70;67.90;;;;;;5020712;28;20374;-78
2022/04/13 01:13:59;;;;;;;3.15;1.30;;;18.70;67.80;;;;;;5021868;28;20129;-76
2022/04/13 01:16:26;;;;;;;2.85;1.88;;;18.60;67.80;;;;;;5035636;28;20029;-75
2022/04/13 01:18:53;;;;;;;3.15;1.75;;;18.60;67.80;;;;;;5025727;28;20032;-75
2022/04/13 01:21:20;;;;;;;3.20;1.92;;;18.60;67.80;;;;;;5057505;28;20178;-75
2022/04/13 01:23:46;;;;;;;4.57;1.90;;;18.60;67.80;;;;;;5051237;28;20040;-76
2022/04/13 01:26:13;;;;;;;2.63;1.88;;;18.60;67.80;;;;;;5035385;28;20972;-75
2022/04/13 01:28:39;;;;;;;2.92;2.03;;;18.50;67.80;;;;;;5050396;28;20553;-75
2022/04/13 01:31:05;;;;;;;3.45;1.67;;;18.50;67.80;;;;;;5047268;28;20041;-77
2022/04/13 01:33:31;;;;;;;2.85;1.60;;;18.40;67.80;;;;;;5052581;28;20125;-75
2022/04/13 01:36:01;;;;;;;2.45;1.80;;;18.50;67.90;;;;;;5067906;28;20534;-75
2022/04/13 01:38:31;;;;;;;3.08;1.90;;;18.40;67.80;;;;;;5035228;28;20033;-75
2022/04/13 01:40:57;;;;;;;3.15;1.65;;;18.30;67.80;;;;;;5067455;28;20029;-75
2022/04/13 01:43:24;;;;;;;3.47;1.60;;;18.30;67.80;;;;;;5072416;28;20473;-75
2022/04/13 01:45:50;;;;;;;2.25;1.40;;;18.30;67.90;;;;;;5055618;28;20044;-75
2022/04/13 01:48:18;;;;;;;2.28;1.60;;;18.30;67.90;;;;;;5062352;28;20043;-75
2022/04/13 01:50:44;;;;;;;3.15;1.85;;;18.30;68.00;;;;;;5041987;28;20035;-78
2022/04/13 01:53:09;;;;;;;2.22;1.50;;;18.30;67.90;;;;;;5038608;28;20667;-75
2022/04/13 01:55:35;;;;;;;1.90;1.67;;;18.20;68.00;;;;;;5039356;28;20469;-75
2022/04/13 01:58:01;;;;;;;3.40;1.70;;;18.20;67.90;;;;;;5044022;28;20040;-75
2022/04/13 02:00:27;;;;;;;2.10;1.45;;;18.10;67.90;;;;;;5040400;28;20024;-75
2022/04/13 02:02:53;;;;;;;2.75;1.70;;;18.20;67.90;;;;;;5052639;28;20060;-77
2022/04/13 02:05:19;;;;;;;2.55;1.70;;;18.10;67.90;;;;;;5039349;28;20094;-77
2022/04/13 02:07:45;;;;;;;3.80;1.80;;;18.10;67.90;;;;;;5059196;28;20055;-77
2022/04/13 02:10:11;;;;;;;3.55;2.00;;;18.10;67.90;;;;;;5056020;28;20512;-75
2022/04/13 02:12:37;;;;;;;2.65;1.52;;;18.10;68.00;;;;;;5040269;28;20535;-75
2022/04/13 02:15:04;;;;;;;1.80;1.55;;;18.00;68.00;;;;;;5033452;28;20032;-75
2022/04/13 02:17:30;;;;;;;2.92;1.73;;;18.00;67.90;;;;;;5073594;28;20039;-76
2022/04/13 02:19:56;;;;;;;2.42;1.80;;;18.00;68.00;;;;;;5037307;28;20175;-76
2022/04/13 02:22:22;;;;;;;2.08;1.55;;;17.90;68.00;;;;;;5036824;28;20353;-75
2022/04/13 02:24:48;;;;;;;3.17;1.95;;;17.90;67.90;;;;;;5054078;28;20086;-75
2022/04/13 02:27:13;;;;;;;2.08;1.73;;;17.90;68.00;;;;;;5053838;28;20106;-75
2022/04/13 02:29:42;;;;;;;3.90;1.75;;;17.90;68.00;;;;;;5020800;28;20511;-75
2022/04/13 02:32:09;;;;;;;3.00;1.88;;;17.80;67.90;;;;;;5075196;28;20032;-75
2022/04/13 02:34:34;;;;;;;3.45;2.05;;;17.80;67.90;;;;;;5038273;28;20024;-75
2022/04/13 02:37:01;;;;;;;2.30;1.85;;;17.80;68.00;;;;;;5021433;28;20032;-76
2022/04/13 02:39:27;;;;;;;2.70;1.85;;;17.80;68.00;;;;;;5072808;28;20078;-76
2022/04/13 02:41:52;;;;;;;3.33;2.03;;;17.70;67.90;;;;;;5053072;28;20082;-75
2022/04/13 02:44:18;;;;;;;3.95;2.15;;;17.70;68.00;;;;;;5054917;28;20415;-76
2022/04/13 02:46:44;;;;;;;2.72;1.80;;;17.70;68.00;;;;;;5053136;28;20514;-75
2022/04/13 02:49:11;;;;;;;2.33;1.77;;;17.60;68.00;;;;;;5038554;28;20108;-75
2022/04/13 02:51:37;;;;;;;2.92;1.70;;;17.70;68.00;;;;;;5033722;28;20115;-76
2022/04/13 02:54:03;;;;;;;2.78;1.70;;;17.60;68.10;;;;;;5037226;28;20473;-75
2022/04/13 02:56:29;;;;;;;2.58;1.83;;;17.60;68.10;;;;;;5035514;28;20541;-75
2022/04/13 02:58:55;;;;;;;3.38;2.00;;;17.60;68.20;;;;;;5035966;28;20041;-75
2022/04/13 03:01:21;;;;;;;2.70;1.88;;;17.50;68.10;;;;;;5052949;28;20056;-76
2022/04/13 03:03:47;;;;;;;4.00;2.10;;;17.50;68.20;;;;;;5037996;28;20052;-75
2022/04/13 03:06:13;;;;;;;2.92;2.20;;;17.50;68.20;;;;;;5043324;28;20132;-75
2022/04/13 03:08:38;;;;;;;2.90;2.20;;;17.40;68.20;;;;;;5047590;28;20734;-75
2022/04/13 03:11:05;;;;;;;2.35;1.83;;;17.50;68.30;;;;;;5053353;28;20047;-75
2022/04/13 03:13:31;;;;;;;2.72;2.00;;;17.40;68.30;;;;;;5038161;28;20036;-76
2022/04/13 03:15:57;;;;;;;3.78;2.10;;;17.40;68.30;;;;;;5053859;28;20020;-75
2022/04/13 03:18:22;;;;;;;2.33;2.10;;;17.40;68.40;;;;;;5038635;28;20090;-75
2022/04/13 03:20:48;;;;;;;3.13;2.28;;;17.40;68.40;;;;;;5052930;28;20764;-75
2022/04/13 03:23:14;;;;;;;3.05;2.03;;;17.40;68.50;;;;;;5022703;28;20480;-76
2022/04/13 03:25:40;;;;;;;2.17;1.90;;;17.40;68.50;;;;;;5021529;28;20033;-75
2022/04/13 03:28:05;;;;;;;4.18;2.47;;;17.30;68.50;;;;;;5035456;28;20044;-75
2022/04/13 03:30:31;;;;;;;3.28;2.25;;;17.30;68.50;;;;;;5036474;28;20036;-75
2022/04/13 03:32:57;;;;;;;3.33;2.20;;;17.30;68.60;;;;;;5033345;28;20377;-76
2022/04/13 03:35:22;;;;;;;2.60;2.05;;;17.20;68.60;;;;;;5072839;28;20464;-77
2022/04/13 03:37:48;;;;;;;3.80;2.17;;;17.30;68.60;;;;;;5042581;28;20025;-75
2022/04/13 03:40:14;;;;;;;3.13;2.33;;;17.20;68.60;;;;;;5035626;28;20036;-76
2022/04/13 03:42:41;;;;;;;2.88;2.05;;;17.20;68.60;;;;;;5053335;28;20036;-75
2022/04/13 03:45:12;;;;;;;2.83;2.15;;;17.20;68.60;;;;;;5035769;28;20044;-75
2022/04/13 03:47:39;;;;;;;3.58;2.33;;;17.20;68.70;;;;;;5036183;28;20044;-75
2022/04/13 03:50:06;;;;;;;3.17;2.25;;;17.10;68.60;;;;;;5053003;28;20020;-76
2022/04/13 03:52:33;;;;;;;3.50;2.50;;;17.20;68.70;;;;;;5035744;28;20036;-76
2022/04/13 03:55:00;;;;;;;3.55;2.45;;;17.10;68.70;;;;;;5034992;28;20025;-75
2022/04/13 03:57:26;;;;;;;3.95;2.42;;;17.10;68.70;;;;;;5036040;28;20032;-75
2022/04/13 03:59:52;;;;;;;3.65;2.58;;;17.10;68.80;;;;;;5039276;28;20051;-77
2022/04/13 04:02:17;;;;;;;4.55;2.70;;;17.10;68.80;;;;;;5053145;28;20397;-74
2022/04/13 04:04:43;;;;;;;3.13;2.13;;;17.00;68.70;;;;;;5034995;28;20024;-75
2022/04/13 04:07:09;;;;;;;3.15;2.47;;;17.00;68.80;;;;;;5070177;28;20051;-75
2022/04/13 04:09:35;;;;;;;4.30;3.03;;;17.00;68.80;;;;;;5034850;28;20075;-75
2022/04/13 04:12:01;;;;;;;3.95;2.65;;;17.00;68.80;;;;;;5035130;28;20056;-75
2022/04/13 04:14:26;;;;;;;3.40;2.78;;;17.00;68.80;;;;;;5051538;28;20012;-75
2022/04/13 04:16:52;;;;;;;4.00;2.80;;;17.00;68.80;;;;;;5037619;28;20056;-75
2022/04/13 04:19:18;;;;;;;4.30;2.75;;;16.90;68.80;;;;;;5037968;28;20111;-75
2022/04/13 04:21:44;;;;;;;4.20;2.83;;;16.90;68.80;;;;;;5051351;28;20468;-75
2022/04/13 04:24:09;;;;;;;3.35;2.50;;;16.90;68.90;;;;;;5056395;28;20530;-75
2022/04/13 04:26:35;;;;;;;4.25;2.60;;;16.90;68.90;;;;;;5034941;28;20067;-77
2022/04/13 04:29:01;;;;;;;4.03;3.03;;;16.90;68.90;;;;;;5033394;28;20035;-76
2022/04/13 04:34:11;;;;;;;3.70;2.90;;;16.80;68.80;;;;;;5053190;28;20035;-75
2022/04/13 04:36:37;;;;;;;4.00;2.58;;;16.80;68.80;;;;;;5051718;28;20021;-75
2022/04/13 04:39:03;;;;;;;3.55;2.63;;;16.80;68.90;;;;;;5041118;28;20082;-76
2022/04/13 04:41:29;;;;;;;2.40;2.13;;;16.70;68.80;;;;;;5032662;28;20033;-75
2022/04/13 04:43:54;;;;;;;3.75;2.80;;;16.70;68.80;;;;;;5051043;28;20032;-75
2022/04/13 04:46:20;;;;;;;3.67;2.70;;;16.70;69.50;;;;;;5050425;28;20676;-74
2022/04/13 04:48:46;;;;;;;5.35;2.97;;;16.70;68.90;;;;;;5050591;28;20491;-75
2022/04/13 04:51:12;;;;;;;3.83;2.50;;;16.60;68.80;;;;;;5049138;28;20085;-75
2022/04/13 04:53:38;;;;;;;4.53;3.17;;;16.60;68.90;;;;;;5050898;28;20040;-75
2022/04/13 04:56:04;;;;;;;4.70;3.28;;;16.60;68.90;;;;;;5050283;28;20476;-76
2022/04/13 04:58:30;;;;;;;3.63;2.83;;;16.60;68.90;;;;;;5054235;28;20055;-76
2022/04/13 05:00:56;;;;;;;3.75;2.83;;;16.50;68.80;;;;;;5055355;28;20032;-75
2022/04/13 05:03:22;;;;;;;5.32;3.28;;;16.50;68.90;;;;;;5052461;28;20047;-75
2022/04/13 05:05:48;;;;;;;5.88;3.00;;;16.50;68.90;;;;;;5036098;28;20111;-75
2022/04/13 05:08:13;;;;;;;4.22;3.10;;;16.50;68.90;;;;;;5049739;28;20483;-75
2022/04/13 05:10:42;;;;;;;4.80;2.85;;;16.40;68.80;;;;;;5064475;28;20824;-74
2022/04/13 05:13:08;;;;;;;4.30;3.03;;;16.40;68.90;;;;;;5067476;28;20101;-74
2022/04/13 05:15:34;;;;;;;4.93;3.10;;;16.40;68.90;;;;;;5050036;28;20097;-75
2022/04/13 05:17:59;;;;;;;4.07;3.08;;;16.40;68.90;;;;;;5032969;28;20036;-75
2022/04/13 05:20:25;;;;;;;4.78;3.10;;;16.40;68.90;;;;;;5019440;28;20186;-76
2022/04/13 05:22:51;;;;;;;4.60;2.95;;;16.30;68.90;;;;;;5054630;28;20032;-75
2022/04/13 05:25:17;;;;;;;4.05;3.17;;;16.30;68.90;;;;;;5079250;28;20034;-74
2022/04/13 05:27:44;;;;;;;5.40;3.30;;;16.30;68.90;;;;;;5074172;28;20039;-74
2022/04/13 05:30:11;;;;;;;3.90;3.08;;;16.20;68.90;;;;;;5054761;28;20048;-75
2022/04/13 05:32:47;;;;;;;5.70;3.38;;;16.20;69.60;;;;;;5038656;28;20020;-75
2022/04/13 05:35:13;;;;;;;5.13;2.92;;;16.20;69.00;;;;;;5054068;28;20380;-76
2022/04/13 05:37:38;;;;;;;5.28;3.22;;;16.20;69.00;;;;;;5033193;28;20021;-73
2022/04/13 05:40:05;;;;;;;4.40;3.00;;;16.20;68.90;;;;;;5053690;28;20036;-74
2022/04/13 05:42:31;;;;;;;4.57;2.92;;;16.10;68.90;;;;;;5070990;28;20033;-75
2022/04/13 05:44:58;;;;;;;5.30;3.25;;;16.10;69.00;;;;;;5054619;28;20032;-73
2022/04/13 05:47:24;;;;;;;4.82;3.20;;;16.10;69.00;;;;;;5038787;28;20037;-74
2022/04/13 05:49:50;;;;;;;4.93;3.17;;;16.00;69.10;;;;;;5050382;28;20036;-74
2022/04/13 05:52:16;;;;;;;4.45;3.08;;;16.00;69.10;;;;;;5034974;28;20465;-76
2022/04/13 05:54:41;;;;;;;5.32;3.50;;;16.10;69.20;;;;;;5038080;28;20032;-75
2022/04/13 05:57:07;;;;;;;4.97;3.40;;;16.00;69.10;;;;;;5054159;28;20043;-74
2022/04/13 05:59:34;;;;;;;5.40;3.35;;;16.00;69.20;;;;;;5021313;28;20036;-74
2022/04/13 06:02:00;;;;;;;5.10;3.65;;;16.00;69.30;;;;;;5037686;28;20052;-74
2022/04/13 06:04:26;;;;;;;5.18;3.45;;;15.90;69.30;;;;;;5054221;28;20199;-74
2022/04/13 06:06:54;;;;;;;6.47;3.47;;;16.00;69.40;;;;;;5054347;28;20211;-74
2022/04/13 06:09:20;;;;;;;5.43;3.63;;;15.90;69.30;;;;;;5072066;28;20568;-74
2022/04/13 06:11:46;;;;;;;4.70;3.47;;;15.90;69.40;;;;;;5054019;28;20033;-75
2022/04/13 06:14:12;;;;;;;4.25;3.03;;;15.90;69.40;;;;;;5053875;28;20025;-75
2022/04/13 06:16:37;;;;;;;5.10;3.60;;;15.90;69.50;;;;;;5071839;28;20028;-74
2022/04/13 06:19:03;;;;;;;5.82;3.95;;;15.90;69.50;;;;;;5053736;28;20039;-74
2022/04/13 06:21:29;;;;;;;4.78;3.72;;;15.90;69.60;;;;;;5022005;28;20189;-74
2022/04/13 06:23:55;;;;;;;5.35;4.20;;;15.90;69.50;;;;;;5054174;28;20032;-74
2022/04/13 06:26:20;;;;;;;5.72;3.90;;;15.90;69.50;;;;;;5048517;28;20041;-74
2022/04/13 06:28:46;;;;;;;5.57;3.78;;;15.90;69.60;;;;;;5067323;28;20056;-74
2022/04/13 06:31:12;;;;;;;5.35;3.65;;;15.90;69.60;;;;;;5036318;28;20912;-74
2022/04/13 06:33:38;;;;;;;5.38;3.88;;;15.90;69.60;;;;;;5053605;28;20052;-75
2022/04/13 06:36:05;;;;;;;6.97;4.30;;;15.80;69.60;;;;;;5020619;28;20063;-75
2022/04/13 06:38:35;;;;;;;6.35;4.20;;;15.90;69.70;;;;;;5053661;28;20453;-74
2022/04/13 06:41:01;;;;;;;6.20;4.00;;;15.80;69.70;;;;;;5053739;28;20639;-75
2022/04/13 06:43:26;;;;;;;5.40;4.13;;;15.90;69.70;;;;;;5053316;28;20120;-73
2022/04/13 06:45:53;;;;;;;5.00;3.80;;;15.90;69.70;;;;;;5037038;28;20037;-75
2022/04/13 06:48:21;;;;;;;5.30;4.20;;;15.90;69.70;;;;;;5069479;28;20115;-74
2022/04/13 06:50:47;;;;;;;6.22;4.30;;;15.80;69.70;;;;;;5068742;28;20460;-75
2022/04/13 06:53:14;;;;;;;5.72;4.32;;;15.90;69.70;;;;;;5020719;28;20078;-75
2022/04/13 06:55:41;;;;;;;5.53;4.45;;;15.90;70.10;;;;;;5067637;28;20077;-74
2022/04/13 06:58:07;;;;;;;5.40;4.15;;;15.90;69.80;;;;;;5052511;28;20033;-74
2022/04/13 07:00:33;;;;;;;5.82;4.32;;;15.90;69.80;;;;;;5053964;28;20064;-75
2022/04/13 07:02:58;;;;;;;6.38;4.35;;;15.90;69.80;;;;;;5053352;28;20424;-74
2022/04/13 07:05:25;;;;;;;6.70;4.47;;;15.90;69.80;;;;;;5053161;28;20024;-74
2022/04/13 07:07:51;;;;;;;6.25;4.28;;;15.90;69.90;;;;;;5065429;28;20052;-75
2022/04/13 07:10:17;;;;;;;7.40;4.70;;;15.90;69.90;;;;;;5071188;28;20079;-74
2022/04/13 07:12:42;;;;;;;6.18;4.40;;;15.90;69.90;;;;;;5036378;28;20036;-74
2022/04/13 07:15:08;;;;;;;6.55;5.03;;;15.90;70.00;;;;;;5053374;28;20111;-75
2022/04/13 07:17:35;;;;;;;5.70;4.35;;;16.00;70.00;;;;;;5036382;28;20048;-74
2022/04/13 07:20:01;;;;;;;6.13;4.40;;;16.00;70.10;;;;;;5053097;28;20041;-74
2022/04/13 07:22:27;;;;;;;7.05;4.93;;;16.00;70.10;;;;;;5052754;28;20025;-75
2022/04/13 07:24:52;;;;;;;6.78;5.18;;;16.00;70.10;;;;;;5035785;28;20389;-75
2022/04/13 07:27:18;;;;;;;6.75;5.45;;;16.00;70.10;;;;;;5035427;28;20703;-74
2022/04/13 07:29:44;;;;;;;6.35;4.95;;;16.00;70.10;;;;;;5070691;28;20020;-74
2022/04/13 07:32:11;;;;;;;6.55;4.90;;;16.00;70.10;;;;;;5069581;28;20439;-74
2022/04/13 07:34:37;;;;;;;6.35;5.18;;;16.10;70.20;;;;;;5069309;28;20024;-74
2022/04/13 07:37:05;;;;;;;6.55;4.95;;;16.10;70.20;;;;;;5033557;28;20128;-74
2022/04/13 07:39:31;;;;;;;6.78;5.78;;;16.10;70.20;;;;;;5052375;28;20040;-74
2022/04/13 07:41:57;;;;;;;6.78;5.18;;;16.10;70.20;;;;;;5042375;28;20033;-74
2022/04/13 07:44:23;;;;;;;7.22;5.28;;;16.10;70.20;;;;;;5035517;28;20090;-72
2022/04/13 07:46:48;;;;;;;7.65;5.38;;;16.20;70.40;;;;;;5052710;28;20392;-74
2022/04/13 07:49:14;;;;;;;8.32;5.70;;;16.20;70.30;;;;;;5035365;28;20469;-74
2022/04/13 07:51:40;;;;;;;8.32;5.88;;;16.20;70.30;;;;;;5036307;28;20051;-74
2022/04/13 07:54:06;;;;;;;7.40;5.85;;;16.20;70.30;;;;;;5070042;28;20040;-74
2022/04/13 07:56:32;;;;;;;7.32;5.78;;;16.20;70.30;;;;;;5072766;28;20025;-75
2022/04/13 07:58:58;;;;;;;7.00;5.72;;;16.30;70.20;;;;;;5069851;28;20024;-74
2022/04/13 08:01:24;;;;;;;8.30;5.90;;;16.30;70.40;;;;;;5052747;28;20370;-74
2022/04/13 08:03:50;;;;;;;7.93;6.28;;;16.30;70.40;;;;;;5052282;28;20089;-74
2022/04/13 08:06:16;;;;;;;9.25;6.25;;;16.40;70.40;;;;;;5052345;28;20033;-75
2022/04/13 08:08:41;;;;;;;7.43;6.05;;;16.40;70.40;;;;;;5036739;28;20049;-74
2022/04/13 08:11:07;;;;;;;7.72;6.30;;;16.40;70.40;;;;;;5052204;28;20392;-74
2022/04/13 08:13:33;;;;;;;7.53;5.88;;;16.40;70.40;;;;;;5051683;28;20032;-74
2022/04/13 08:15:59;;;;;;;8.70;6.63;;;16.50;70.40;;;;;;5065439;28;20273;-75
2022/04/13 08:18:25;;;;;;;7.60;5.97;;;16.50;70.50;;;;;;5051225;28;20036;-75
2022/04/13 08:20:51;;;;;;;7.97;6.15;;;16.50;70.50;;;;;;5051817;28;20410;-74
2022/04/13 08:23:16;;;;;;;7.97;6.32;;;16.50;70.40;;;;;;5051552;28;20036;-75
2022/04/13 08:25:42;;;;;;;8.38;6.85;;;16.60;70.50;;;;;;5051757;28;20109;-74
2022/04/13 08:28:08;;;;;;;7.70;6.30;;;16.60;70.50;;;;;;5058784;28;20040;-75
2022/04/13 08:30:34;;;;;;;8.05;6.65;;;16.60;70.50;;;;;;5052584;28;20033;-75
2022/04/13 08:33:00;;;;;;;8.38;6.80;;;16.70;70.50;;;;;;5034914;28;20020;-74
2022/04/13 08:35:26;;;;;;;8.63;6.50;;;16.70;70.50;;;;;;5068821;28;20469;-74
2022/04/13 08:37:52;;;;;;;8.73;6.88;;;16.70;70.50;;;;;;5047602;28;20035;-74
2022/04/13 08:40:19;;;;;;;8.95;7.07;;;16.80;70.60;;;;;;5049714;28;20036;-75
2022/04/13 08:42:47;;;;;;;7.93;6.10;;;16.80;70.60;;;;;;5033629;28;20029;-75
2022/04/13 08:45:20;;;;;;;9.85;6.93;;;16.80;70.60;;;;;;5068932;28;20028;-75
2022/04/13 08:47:47;;;;;;;8.88;6.55;;;16.80;70.60;;;;;;5051012;28;20024;-75
2022/04/13 08:50:13;;;;;;;8.63;6.93;;;16.90;70.60;;;;;;5050938;28;20535;-76
2022/04/13 08:52:40;;;;;;;8.80;6.90;;;17.00;70.60;;;;;;5050717;28;20056;-76
2022/04/13 08:55:09;;;;;;;9.30;6.45;;;17.00;70.70;;;;;;5051694;28;20028;-74
2022/04/13 08:57:44;;;;;;;8.20;6.07;;;17.00;70.60;;;;;;5052453;28;20075;-75
2022/04/13 09:00:14;;;;;;;8.00;6.30;;;17.10;70.70;;;;;;5051307;28;20036;-74
2022/04/13 09:03:10;;;;;;;7.53;5.40;;;17.10;70.60;;;;;;5035419;28;20029;-74
2022/04/13 09:05:38;;;;;;;7.97;6.20;;;17.20;70.70;;;;;;5050914;28;20190;-75
2022/04/13 09:08:23;;;;;;;6.93;5.78;;;17.20;70.40;;;;;;5044448;28;20074;-75
2022/04/13 09:10:52;;;;;;;7.45;5.30;;;17.30;70.60;;;;;;5051214;28;20036;-74
2022/04/13 09:13:20;;;;;;;7.00;5.45;;;17.30;70.40;;;;;;5050892;28;20043;-75
2022/04/13 09:15:47;;;;;;;8.38;6.00;;;17.40;70.50;;;;;;5050794;28;20732;-74
2022/04/13 09:18:13;;;;;;;7.72;5.50;;;17.40;70.50;;;;;;5068695;28;20086;-75
2022/04/13 09:20:39;;;;;;;6.68;5.38;;;17.50;70.50;;;;;;5050826;28;20701;-74
2022/04/13 09:23:06;;;;;;;6.85;4.60;;;17.60;70.50;;;;;;5050650;28;20051;-75
2022/04/13 09:25:32;;;;;;;7.63;4.97;;;17.60;70.50;;;;;;5051040;28;20039;-74
2022/04/13 09:28:00;;;;;;;6.80;4.82;;;17.70;70.50;;;;;;5050496;28;20021;-75
2022/04/13 09:30:26;;;;;;;6.40;4.72;;;17.70;70.50;;;;;;5050750;28;20047;-75
2022/04/13 09:32:52;;;;;;;7.45;5.10;;;17.80;70.50;;;;;;5051385;28;20025;-74
2022/04/13 09:35:19;;;;;;;7.68;5.03;;;17.90;71.20;;;;;;5066892;28;20048;-74
2022/04/13 09:37:46;;;;;;;6.78;4.53;;;17.90;70.50;;;;;;5068878;28;20028;-75
2022/04/13 09:40:37;;;;;;;6.47;4.25;;;18.00;70.60;;;;;;5050081;28;20085;-75
2022/04/13 09:43:07;;;;;;;6.00;4.32;;;18.10;70.80;;;;;;5068338;28;20766;-75
2022/04/13 09:45:37;;;;;;;6.28;4.72;;;18.20;70.60;;;;;;5034876;28;20112;-75
2022/04/13 09:48:08;;;;;;;6.25;4.35;;;18.20;70.60;;;;;;5056590;28;20388;-76
2022/04/13 09:50:34;;;;;;;6.65;4.55;;;18.40;70.70;;;;;;5073103;28;20074;-75
2022/04/13 09:53:03;;;;;;;5.32;4.00;;;18.40;70.50;;;;;;5051685;28;20550;-75
2022/04/13 09:55:30;;;;;;;6.38;4.38;;;18.50;70.60;;;;;;5056209;28;20024;-74
2022/04/13 09:58:17;;;;;;;5.97;4.43;;;18.60;70.60;;;;;;5050341;28;20097;-74
2022/04/13 10:00:46;;;;;;;5.00;3.85;;;18.70;70.70;;;;;;5050731;28;20032;-74
2022/04/13 10:03:19;;;;;;;5.88;3.88;;;18.80;70.50;;;;;;5068820;28;20024;-73
2022/04/13 10:05:49;;;;;;;5.90;4.05;;;18.90;70.60;;;;;;5051862;28;20476;-74
2022/04/13 10:08:18;;;;;;;5.78;4.30;;;18.90;70.40;;;;;;5054392;28;20024;-74
2022/04/13 10:10:47;;;;;;;5.80;3.97;;;19.00;70.30;;;;;;5053637;28;20365;-73
2022/04/13 10:13:30;;;;;;;6.55;4.00;;;19.10;70.40;;;;;;5072207;28;20043;-74
2022/04/13 10:15:57;;;;;;;5.10;3.50;;;19.20;70.30;;;;;;5071960;28;20166;-75
2022/04/13 10:18:24;;;;;;;5.05;3.72;;;19.30;70.20;;;;;;5053504;28;20062;-75
2022/04/13 10:20:49;;;;;;;5.07;3.55;;;19.30;70.10;;;;;;5071684;28;20028;-74
2022/04/13 10:23:16;;;;;;;4.65;3.63;;;19.40;70.10;;;;;;5037177;28;20487;-75
2022/04/13 10:25:43;;;;;;;5.45;3.67;;;19.40;70.00;;;;;;5071740;28;20025;-74
2022/04/13 10:28:12;;;;;;;5.05;3.70;;;19.50;70.00;;;;;;5071603;28;20036;-73
2022/04/13 10:30:42;;;;;;;5.15;3.60;;;19.50;69.90;;;;;;5053453;28;20083;-74
2022/04/13 10:33:14;;;;;;;5.43;3.78;;;19.60;70.00;;;;;;5053347;28;20065;-75
2022/04/13 10:35:45;;;;;;;6.18;3.92;;;19.70;70.00;;;;;;5053892;28;20024;-74
2022/04/13 10:38:12;;;;;;;5.68;3.50;;;19.70;69.90;;;;;;5074086;28;20118;-74
2022/04/13 10:40:40;;;;;;;5.88;3.90;;;19.70;69.90;;;;;;5056174;28;20140;-75
2022/04/13 10:43:08;;;;;;;5.25;3.65;;;19.80;69.90;;;;;;5055475;28;20416;-74
2022/04/13 10:45:36;;;;;;;4.65;3.25;;;19.80;69.90;;;;;;5053887;28;20028;-74
2022/04/13 10:48:17;;;;;;;3.92;2.72;;;19.90;69.80;;;;;;5071564;28;20033;-75
2022/04/13 10:50:54;;;;;;;5.00;3.00;;;19.90;69.80;;;;;;5053642;28;20144;-74
2022/04/13 10:53:29;;;;;;;5.65;3.78;;;19.90;69.60;;;;;;5077732;28;20085;-74
2022/04/13 10:56:00;;;;;;;4.20;3.15;;;19.90;69.50;;;;;;5040908;28;20016;-75
2022/04/13 10:58:51;;;;;;;4.63;3.40;;;20.00;69.50;;;;;;5037064;28;20044;-74
2022/04/13 11:01:20;;;;;;;4.63;3.30;;;20.00;69.60;;;;;;5051202;28;20032;-74
2022/04/13 11:03:47;;;;;;;4.20;3.20;;;20.00;69.50;;;;;;5071493;28;20020;-75
2022/04/13 11:06:13;;;;;;;4.55;3.17;;;20.00;69.50;;;;;;5055337;28;20783;-75
2022/04/13 11:08:52;;;;;;;4.25;3.20;;;20.10;69.50;;;;;;5063821;28;20533;-76
2022/04/13 11:11:23;;;;;;;4.57;3.13;;;20.10;69.50;;;;;;5072607;28;20070;-75
2022/04/13 11:13:50;;;;;;;4.13;3.28;;;20.10;69.40;;;;;;5052998;28;20032;-75
2022/04/13 11:16:21;;;;;;;4.45;3.03;;;20.10;69.40;;;;;;5052440;28;20113;-75
2022/04/13 11:19:06;;;;;;;4.35;3.08;;;20.10;69.50;;;;;;5049678;28;20112;-76
2022/04/13 11:21:55;;;;;;;4.93;3.37;;;20.10;69.50;;;;;;5049208;28;20033;-74
2022/04/13 11:24:47;;;;;;;4.32;3.30;;;20.20;69.50;;;;;;5055926;28;20028;-73
2022/04/13 11:27:14;;;;;;;4.47;3.30;;;20.20;69.50;;;;;;5063057;28;20090;-73
2022/04/13 11:29:56;;;;;;;4.63;3.10;;;20.20;69.40;;;;;;5067765;28;20032;-73
2022/04/13 11:32:26;;;;;;;4.82;2.90;;;20.20;69.30;;;;;;5052696;28;20024;-74
2022/04/13 11:34:51;;;;;;;4.75;3.20;;;20.20;69.40;;;;;;5053011;28;20028;-73
2022/04/13 11:37:18;;;;;;;4.03;3.08;;;20.30;69.40;;;;;;5053832;28;20036;-73
2022/04/13 11:39:56;;;;;;;4.28;2.95;;;20.20;69.30;;;;;;5053245;28;20468;-74
2022/04/13 11:42:28;;;;;;;3.67;2.72;;;20.30;69.30;;;;;;5072092;28;20131;-71
2022/04/13 11:45:00;;;;;;;4.53;2.92;;;20.30;69.30;;;;;;5052452;28;20028;-72
2022/04/13 11:47:37;;;;;;;3.80;2.85;;;20.30;69.20;;;;;;5052046;28;20041;-72
2022/04/13 11:50:25;;;;;;;3.85;2.88;;;20.30;69.30;;;;;;5048335;28;20385;-72
2022/04/13 11:53:09;;;;;;;3.90;2.92;;;20.30;69.30;;;;;;5066858;28;20040;-73
2022/04/13 11:55:35;;;;;;;3.85;2.63;;;20.30;69.20;;;;;;5051419;28;20209;-74
2022/04/13 11:58:04;;;;;;;4.55;3.00;;;20.30;69.10;;;;;;5035735;28;20473;-73
2022/04/13 12:00:54;;;;;;;3.75;2.80;;;20.30;69.10;;;;;;5055558;28;20119;-74
2022/04/13 12:03:22;;;;;;;4.30;2.95;;;20.30;69.30;;;;;;5048667;28;20040;-73
2022/04/13 12:05:51;;;;;;;4.43;3.08;;;20.30;69.10;;;;;;5050656;28;20037;-73
2022/04/13 12:08:24;;;;;;;4.80;2.97;;;20.40;69.10;;;;;;5053647;28;20449;-74
2022/04/13 12:10:54;;;;;;;4.50;3.17;;;20.40;69.10;;;;;;5039340;28;20089;-77
2022/04/13 12:13:20;;;;;;;4.35;2.95;;;20.30;69.10;;;;;;5052081;28;20052;-74
2022/04/13 12:15:51;;;;;;;5.05;3.33;;;20.40;69.20;;;;;;5054300;28;20067;-74
2022/04/13 12:18:22;;;;;;;4.10;2.70;;;20.40;69.10;;;;;;5050201;28;20079;-73
2022/04/13 12:20:49;;;;;;;4.35;3.15;;;20.40;69.10;;;;;;5055326;28;20106;-74
2022/04/13 12:23:25;;;;;;;4.18;2.80;;;20.40;69.10;;;;;;5051670;28;20481;-74
2022/04/13 12:26:00;;;;;;;3.83;2.70;;;20.40;69.10;;;;;;5034623;28;20074;-72
2022/04/13 12:28:26;;;;;;;4.18;3.08;;;20.40;69.10;;;;;;5041131;28;20063;-72
2022/04/13 12:31:03;;;;;;;5.22;3.33;;;20.40;69.10;;;;;;5048146;28;20047;-73
2022/04/13 12:33:30;;;;;;;4.38;2.90;;;20.40;69.10;;;;;;5070018;28;20124;-72
2022/04/13 12:36:01;;;;;;;3.95;2.90;;;20.40;69.10;;;;;;5072213;28;20036;-72
2022/04/13 12:38:35;;;;;;;5.35;3.28;;;20.40;69.00;;;;;;5085677;28;20124;-73
2022/04/13 12:41:06;;;;;;;4.40;3.03;;;20.40;69.00;;;;;;5035891;28;20119;-74
2022/04/13 12:43:33;;;;;;;3.90;3.00;;;20.40;69.00;;;;;;5069315;28;20025;-72
2022/04/13 12:46:11;;;;;;;4.93;3.13;;;20.40;69.10;;;;;;5051691;28;20108;-72
2022/04/13 12:48:37;;;;;;;3.88;2.72;;;20.40;69.10;;;;;;5061745;28;20028;-72
2022/04/13 12:51:05;;;;;;;3.83;2.75;;;20.40;69.10;;;;;;5070278;28;20024;-72
2022/04/13 12:53:40;;;;;;;4.40;2.95;;;20.40;69.10;;;;;;5051762;28;20033;-73